createdAt,value
2023-09-24T00:00:24.640Z,1.1
2023-09-24T00:05:30.116Z,1.0
2023-09-24T00:10:18.208Z,0.9
2023-09-24T00:15:24.341Z,1.0
2023-09-24T00:20:30.365Z,1.1
2023-09-24T00:25:19.438Z,1.4
2023-09-24T00:30:25.507Z,1.6
2023-09-24T00:35:31.678Z,1.2
2023-09-24T00:40:21.482Z,1.1
2023-09-24T00:45:26.581Z,1.0
2023-09-24T00:50:32.463Z,1.0
2023-09-24T00:55:21.614Z,1.0
2023-09-24T01:00:28.389Z,1.0
2023-09-24T01:05:33.132Z,1.2
2023-09-24T01:10:21.956Z,1.3
2023-09-24T01:15:28.130Z,1.1
2023-09-24T01:20:33.926Z,1.0
2023-09-24T01:25:22.765Z,1.3
2023-09-24T01:30:28.893Z,1.4
2023-09-24T01:35:18.144Z,1.1
2023-09-24T01:40:24.536Z,0.9
2023-09-24T01:45:30.266Z,0.9
2023-09-24T01:50:18.747Z,0.9
2023-09-24T01:55:24.795Z,1.0
2023-09-24T02:00:30.970Z,1.0
2023-09-24T02:05:20.132Z,1.1
2023-09-24T02:10:26.248Z,1.1
2023-09-24T02:15:32.191Z,1.1
2023-09-24T02:20:21.329Z,1.1
2023-09-24T02:25:27.408Z,1.2
2023-09-24T02:30:33.588Z,1.3
2023-09-24T02:35:22.559Z,1.5
2023-09-24T02:40:29.238Z,1.6
2023-09-24T02:45:34.660Z,1.7
2023-09-24T02:50:23.483Z,1.8
2023-09-24T02:55:29.416Z,1.8
2023-09-24T03:00:18.597Z,1.8
2023-09-24T03:05:23.711Z,1.8
2023-09-24T03:10:29.706Z,1.8
2023-09-24T03:15:18.724Z,1.6
2023-09-24T03:20:24.956Z,1.5
2023-09-24T03:25:31.292Z,1.7
2023-09-24T03:30:19.946Z,1.9
2023-09-24T03:35:26.773Z,1.8
2023-09-24T03:40:32.132Z,1.7
2023-09-24T03:45:21.048Z,1.7
2023-09-24T03:50:26.702Z,1.7
2023-09-24T03:55:32.816Z,2.0
2023-09-24T04:00:23.843Z,2.2
2023-09-24T04:05:28.090Z,1.8
2023-09-24T04:10:34.113Z,1.6
2023-09-24T04:15:23.912Z,2.1
2023-09-24T04:20:29.286Z,2.4
2023-09-24T04:25:18.287Z,2.3
2023-09-24T04:30:24.497Z,2.2
2023-09-24T04:35:30.419Z,2.4
2023-09-24T04:40:20.705Z,2.6
2023-09-24T04:45:25.690Z,2.2
2023-09-24T04:50:31.351Z,2.0
2023-09-24T04:55:20.341Z,1.8
2023-09-24T05:00:27.123Z,1.7
2023-09-24T05:05:32.164Z,1.7
2023-09-24T05:10:20.659Z,1.7
2023-09-24T05:15:26.820Z,2.0
2023-09-24T05:20:32.740Z,2.3
2023-09-24T05:25:21.762Z,2.0
2023-09-24T05:30:27.868Z,1.7
2023-09-24T05:35:34.014Z,1.9
2023-09-24T05:40:23.710Z,2.1
2023-09-24T05:45:29.172Z,2.2
2023-09-24T05:50:17.692Z,2.3
2023-09-24T05:55:23.885Z,2.5
2023-09-24T06:00:30.315Z,2.7
2023-09-24T06:05:19.051Z,2.7
2023-09-24T06:10:25.113Z,2.7
2023-09-24T06:15:31.162Z,2.8
2023-09-24T06:20:20.779Z,2.8
2023-09-24T06:25:26.267Z,3.3
2023-09-24T06:30:32.427Z,3.8
2023-09-24T06:35:21.386Z,4.3
2023-09-24T06:40:27.867Z,4.7
2023-09-24T06:45:33.595Z,4.3
2023-09-24T06:50:22.296Z,3.9
2023-09-24T06:55:28.428Z,4.0
2023-09-24T07:00:34.390Z,4.1
2023-09-24T07:05:22.529Z,3.8
2023-09-24T07:10:28.640Z,3.4
2023-09-24T07:15:17.831Z,3.4
2023-09-24T07:20:24.687Z,3.3
2023-09-24T07:25:29.749Z,3.2
2023-09-24T07:30:18.903Z,3.1
2023-09-24T07:35:24.937Z,3.1
2023-09-24T07:40:30.980Z,3.2
2023-09-24T07:45:20.081Z,2.7
2023-09-24T07:50:25.747Z,2.2
2023-09-24T07:55:31.822Z,2.6
2023-09-24T08:00:21.660Z,3.0
2023-09-24T08:05:27.075Z,3.2
2023-09-24T08:10:35.024Z,3.5
2023-09-24T08:15:22.219Z,2.9
2023-09-24T08:20:28.343Z,2.3
2023-09-24T08:25:34.319Z,2.2
2023-09-24T08:30:23.268Z,2.2
2023-09-24T08:35:29.555Z,2.2
2023-09-24T08:40:19.602Z,2.2
2023-09-24T08:45:24.693Z,2.2
2023-09-24T08:50:30.255Z,2.2
2023-09-24T08:55:19.168Z,2.3
2023-09-24T09:00:25.478Z,2.3
2023-09-24T09:05:30.651Z,2.5
2023-09-24T09:10:19.858Z,2.9
2023-09-24T09:15:26.010Z,2.7
2023-09-24T09:20:31.795Z,2.4
2023-09-24T09:25:22.332Z,2.3
2023-09-24T09:30:27.346Z,2.1
2023-09-24T09:35:33.041Z,1.9
2023-09-24T09:40:23.128Z,1.4
2023-09-24T09:45:28.315Z,2.0
2023-09-24T09:50:33.890Z,2.8
2023-09-24T09:55:22.745Z,2.2
2023-09-24T10:00:29.311Z,1.2
2023-09-24T10:05:18.258Z,1.3
2023-09-24T10:10:26.184Z,1.4
2023-09-24T10:15:30.438Z,1.3
2023-09-24T10:20:20.133Z,1.3
2023-09-24T10:25:25.330Z,1.2
2023-09-24T10:30:31.574Z,1.1
2023-09-24T10:35:20.493Z,1.1
2023-09-24T10:40:27.179Z,1.2
2023-09-24T10:45:32.724Z,1.1
2023-09-24T10:50:21.253Z,0.9
2023-09-24T10:55:27.516Z,1.0
2023-09-24T11:00:33.634Z,1.2
2023-09-24T11:05:21.490Z,1.1
2023-09-24T11:10:27.719Z,0.9
2023-09-24T11:15:33.930Z,0.9
2023-09-24T11:20:23.109Z,1.0
2023-09-24T11:25:29.924Z,0.9
2023-09-24T11:30:18.203Z,0.8
2023-09-24T11:35:24.045Z,0.8
2023-09-24T11:40:30.114Z,0.9
2023-09-24T11:45:19.167Z,1.0
2023-09-24T11:50:25.039Z,1.1
2023-09-24T11:55:31.088Z,1.1
2023-09-24T12:00:21.788Z,1.0
2023-09-24T12:05:33.376Z,1.2
2023-09-24T12:10:32.352Z,1.7
2023-09-24T12:15:21.403Z,1.5
2023-09-24T12:20:28.107Z,1.1
2023-09-24T12:25:33.889Z,1.1
2023-09-24T12:30:22.617Z,1.0
2023-09-24T12:35:28.582Z,0.9
2023-09-24T12:40:34.733Z,0.7
2023-09-24T12:45:23.683Z,0.7
2023-09-24T12:50:29.418Z,0.7
2023-09-24T12:55:18.495Z,0.7
2023-09-24T13:00:25.309Z,0.6
2023-09-24T13:05:29.677Z,0.6
2023-09-24T13:10:18.629Z,0.6
2023-09-24T13:15:24.839Z,0.6
2023-09-24T13:20:32.683Z,0.7
2023-09-24T13:25:20.861Z,0.7
2023-09-24T13:30:26.385Z,0.7
2023-09-24T13:35:32.044Z,0.7
2023-09-24T13:40:37.001Z,0.7
2023-09-24T13:45:27.123Z,0.7
2023-09-24T13:50:32.738Z,0.7
2023-09-24T13:55:21.788Z,0.8
2023-09-24T14:00:28.534Z,0.9
2023-09-24T14:05:34.045Z,0.9
2023-09-24T14:10:23.128Z,0.8
2023-09-24T14:15:29.236Z,0.8
2023-09-24T14:20:19.060Z,0.7
2023-09-24T14:25:24.393Z,0.7
2023-09-24T14:30:30.301Z,0.7
2023-09-24T14:35:19.532Z,3.2
2023-09-24T14:40:26.109Z,8.2
2023-09-24T14:45:31.531Z,5.9
2023-09-24T14:50:19.510Z,0.8
2023-09-24T14:55:25.701Z,14.2
2023-09-24T15:00:31.712Z,45.4
2023-09-24T15:05:20.848Z,35.5
2023-09-24T15:10:26.886Z,0.9
2023-09-24T15:15:32.948Z,0.8
2023-09-24T15:20:22.890Z,0.6
2023-09-24T15:25:28.076Z,0.6
2023-09-24T15:30:34.125Z,0.6
2023-09-24T15:35:23.130Z,0.6
2023-09-24T15:40:29.952Z,0.6
2023-09-24T15:45:18.392Z,0.6
2023-09-24T15:50:24.064Z,0.7
2023-09-24T15:55:30.190Z,0.8
2023-09-24T16:00:20.322Z,1.4
2023-09-24T16:05:24.462Z,1.9
2023-09-24T16:10:30.405Z,4.1
2023-09-24T16:15:19.498Z,3.3
2023-09-24T16:20:25.852Z,0.6
2023-09-24T16:25:31.718Z,0.7
2023-09-24T16:30:20.920Z,1.3
2023-09-24T16:35:26.688Z,1.2
2023-09-24T16:40:32.761Z,1.0
2023-09-24T16:45:22.269Z,0.9
2023-09-24T16:50:27.703Z,0.7
2023-09-24T16:55:33.606Z,0.7
2023-09-24T17:00:23.836Z,0.9
2023-09-24T17:05:29.009Z,1.0
2023-09-24T17:10:17.904Z,1.4
2023-09-24T17:15:24.297Z,1.3
2023-09-24T17:20:30.001Z,0.8
2023-09-24T17:25:19.003Z,0.8
2023-09-24T17:30:25.224Z,1.1
2023-09-24T17:35:31.196Z,1.1
2023-09-24T17:40:21.232Z,1.1
2023-09-24T17:45:26.473Z,1.1
2023-09-24T17:50:32.074Z,0.9
2023-09-24T17:55:21.098Z,1.0
2023-09-24T18:00:27.370Z,1.4
2023-09-24T18:05:32.469Z,1.3
2023-09-24T18:10:21.365Z,1.0
2023-09-24T18:15:27.600Z,1.0
2023-09-24T18:20:33.593Z,1.1
2023-09-24T18:25:22.540Z,1.1
2023-09-24T18:30:28.869Z,1.2
2023-09-24T18:35:18.117Z,1.1
2023-09-24T18:40:23.803Z,1.1
2023-09-24T18:45:29.831Z,1.0
2023-09-24T18:50:18.773Z,1.0
2023-09-24T18:55:24.714Z,1.0
2023-09-24T19:00:31.016Z,1.0
2023-09-24T19:05:19.689Z,1.0
2023-09-24T19:10:25.871Z,1.4
2023-09-24T19:15:31.999Z,1.4
2023-09-24T19:20:22.013Z,1.3
2023-09-24T19:25:27.092Z,1.3
2023-09-24T19:30:33.205Z,1.4
2023-09-24T19:35:22.108Z,1.4
2023-09-24T19:40:28.272Z,1.1
2023-09-24T19:45:34.393Z,1.1
2023-09-24T19:50:23.119Z,1.8
2023-09-24T19:55:29.370Z,1.8
2023-09-24T20:00:19.112Z,1.6
2023-09-24T20:05:23.490Z,1.9
2023-09-24T20:10:29.561Z,4.8
2023-09-24T20:15:19.825Z,4.5
2023-09-24T20:20:24.797Z,1.7
2023-09-24T20:25:30.718Z,1.6
2023-09-24T20:30:19.768Z,1.2
2023-09-24T20:35:25.754Z,1.2
2023-09-24T20:40:31.862Z,1.4
2023-09-24T20:45:21.356Z,1.4
2023-09-24T20:50:26.949Z,1.5
2023-09-24T20:55:32.880Z,1.5
2023-09-24T21:00:23.067Z,1.4
2023-09-24T21:05:28.245Z,1.4
2023-09-24T21:10:34.032Z,1.3
2023-09-24T21:15:23.266Z,1.3
2023-09-24T21:20:29.242Z,1.5
2023-09-24T21:25:18.320Z,1.5
2023-09-24T21:30:25.270Z,1.7
2023-09-24T21:35:30.437Z,1.7
2023-09-24T21:40:20.477Z,1.7
2023-09-24T21:45:25.492Z,1.7
2023-09-24T21:50:31.315Z,1.8
2023-09-24T21:55:20.352Z,1.8
2023-09-24T22:00:26.976Z,1.4
2023-09-24T22:05:31.780Z,1.4
2023-09-24T22:10:20.630Z,1.7
2023-09-24T22:15:26.727Z,1.7
2023-09-24T22:20:32.728Z,2.4
2023-09-24T22:25:21.854Z,2.4
2023-09-24T22:30:27.880Z,1.6
2023-09-24T22:35:33.850Z,1.6
2023-09-24T22:40:23.774Z,1.7
2023-09-24T22:45:29.301Z,1.7
2023-09-24T22:50:17.846Z,1.7
2023-09-24T22:55:23.888Z,1.7
2023-09-24T23:00:29.990Z,1.5
2023-09-24T23:05:19.041Z,1.5
2023-09-24T23:10:25.211Z,1.7
2023-09-24T23:15:31.326Z,1.7
2023-09-24T23:20:21.428Z,1.7
2023-09-24T23:25:27.215Z,1.7
2023-09-24T23:30:32.421Z,1.6
2023-09-24T23:35:21.420Z,1.6
2023-09-24T23:40:28.688Z,1.9
2023-09-24T23:45:33.611Z,1.9
2023-09-24T23:50:22.286Z,1.8
2023-09-24T23:55:28.573Z,1.8
